sensor_id;sensor_type;location;lat;lon;timestamp;temperature;humidity
15906;DHT22;8051;50.820;4.884;2023-05-23T00:00:47;14.00;99.90
15906;DHT22;8051;50.820;4.884;2023-05-23T00:03:16;14.00;99.90
15906;DHT22;8051;50.820;4.884;2023-05-23T00:05:47;13.90;99.90
15906;DHT22;8051;50.820;4.884;2023-05-23T00:08:15;13.90;99.90
15906;DHT22;8051;50.820;4.884;2023-05-23T00:10:42;13.80;99.90
15906;DHT22;8051;50.820;4.884;2023-05-23T00:13:10;13.70;99.90
15906;DHT22;8051;50.820;4.884;2023-05-23T00:15:41;13.70;99.90
15906;DHT22;8051;50.820;4.884;2023-05-23T00:18:08;13.60;99.90
15906;DHT22;8051;50.820;4.884;2023-05-23T00:20:37;13.50;99.90
15906;DHT22;8051;50.820;4.884;2023-05-23T00:23:06;13.40;99.90
15906;DHT22;8051;50.820;4.884;2023-05-23T00:25:35;13.40;99.90
15906;DHT22;8051;50.820;4.884;2023-05-23T00:28:02;13.30;99.90
15906;DHT22;8051;50.820;4.884;2023-05-23T00:30:32;13.30;99.90
15906;DHT22;8051;50.820;4.884;2023-05-23T00:33:01;13.20;99.90
15906;DHT22;8051;50.820;4.884;2023-05-23T00:35:29;13.20;99.90
15906;DHT22;8051;50.820;4.884;2023-05-23T00:37:56;13.20;99.90
15906;DHT22;8051;50.820;4.884;2023-05-23T00:40:23;13.10;99.90
15906;DHT22;8051;50.820;4.884;2023-05-23T00:42:51;13.10;99.90
15906;DHT22;8051;50.820;4.884;2023-05-23T00:45:18;13.10;99.90
15906;DHT22;8051;50.820;4.884;2023-05-23T00:47:46;13.10;99.90
15906;DHT22;8051;50.820;4.884;2023-05-23T00:50:15;13.20;99.90
15906;DHT22;8051;50.820;4.884;2023-05-23T00:52:44;13.30;99.90
15906;DHT22;8051;50.820;4.884;2023-05-23T00:55:12;13.30;99.90
15906;DHT22;8051;50.820;4.884;2023-05-23T00:57:40;13.40;99.90
15906;DHT22;8051;50.820;4.884;2023-05-23T01:00:10;13.40;99.90
15906;DHT22;8051;50.820;4.884;2023-05-23T01:02:42;13.30;99.90
15906;DHT22;8051;50.820;4.884;2023-05-23T01:05:10;13.30;99.90
15906;DHT22;8051;50.820;4.884;2023-05-23T01:07:40;13.30;99.90
15906;DHT22;8051;50.820;4.884;2023-05-23T01:10:09;13.40;99.90
15906;DHT22;8051;50.820;4.884;2023-05-23T01:12:44;13.40;99.90
15906;DHT22;8051;50.820;4.884;2023-05-23T01:15:14;13.40;99.90
15906;DHT22;8051;50.820;4.884;2023-05-23T01:17:51;13.50;99.90
15906;DHT22;8051;50.820;4.884;2023-05-23T01:20:21;13.60;99.90
15906;DHT22;8051;50.820;4.884;2023-05-23T01:23:04;13.60;99.90
15906;DHT22;8051;50.820;4.884;2023-05-23T01:25:56;13.70;99.90
15906;DHT22;8051;50.820;4.884;2023-05-23T01:28:31;13.70;99.90
15906;DHT22;8051;50.820;4.884;2023-05-23T01:31:02;13.80;99.90
15906;DHT22;8051;50.820;4.884;2023-05-23T01:33:31;13.80;99.90
15906;DHT22;8051;50.820;4.884;2023-05-23T01:36:01;13.80;99.90
15906;DHT22;8051;50.820;4.884;2023-05-23T01:38:29;13.80;99.90
15906;DHT22;8051;50.820;4.884;2023-05-23T01:40:57;13.80;99.90
15906;DHT22;8051;50.820;4.884;2023-05-23T01:43:24;13.90;99.90
15906;DHT22;8051;50.820;4.884;2023-05-23T01:45:55;13.90;99.90
15906;DHT22;8051;50.820;4.884;2023-05-23T01:48:24;13.80;99.90
15906;DHT22;8051;50.820;4.884;2023-05-23T01:50:52;13.90;99.90
15906;DHT22;8051;50.820;4.884;2023-05-23T01:53:22;13.90;99.90
15906;DHT22;8051;50.820;4.884;2023-05-23T01:55:51;13.90;99.90
15906;DHT22;8051;50.820;4.884;2023-05-23T01:58:19;13.90;99.90
15906;DHT22;8051;50.820;4.884;2023-05-23T02:00:46;13.90;99.90
15906;DHT22;8051;50.820;4.884;2023-05-23T02:03:15;13.90;99.90
15906;DHT22;8051;50.820;4.884;2023-05-23T02:05:43;13.90;99.90
15906;DHT22;8051;50.820;4.884;2023-05-23T02:08:10;13.90;99.90
15906;DHT22;8051;50.820;4.884;2023-05-23T02:10:38;13.90;99.90
15906;DHT22;8051;50.820;4.884;2023-05-23T02:13:05;13.90;99.90
15906;DHT22;8051;50.820;4.884;2023-05-23T02:15:32;13.90;99.90
15906;DHT22;8051;50.820;4.884;2023-05-23T02:18:00;13.90;99.90
15906;DHT22;8051;50.820;4.884;2023-05-23T02:20:29;13.90;99.90
15906;DHT22;8051;50.820;4.884;2023-05-23T02:22:56;13.90;99.90
15906;DHT22;8051;50.820;4.884;2023-05-23T02:25:24;13.90;99.90
15906;DHT22;8051;50.820;4.884;2023-05-23T02:27:51;13.80;99.90
15906;DHT22;8051;50.820;4.884;2023-05-23T02:30:19;13.90;99.90
15906;DHT22;8051;50.820;4.884;2023-05-23T02:32:46;13.90;99.90
15906;DHT22;8051;50.820;4.884;2023-05-23T02:35:14;13.90;99.90
15906;DHT22;8051;50.820;4.884;2023-05-23T02:37:43;13.90;99.90
15906;DHT22;8051;50.820;4.884;2023-05-23T02:40:10;13.90;99.90
15906;DHT22;8051;50.820;4.884;2023-05-23T02:42:38;13.90;99.90
15906;DHT22;8051;50.820;4.884;2023-05-23T02:45:06;13.80;99.90
15906;DHT22;8051;50.820;4.884;2023-05-23T02:47:34;13.90;99.90
15906;DHT22;8051;50.820;4.884;2023-05-23T02:50:02;13.90;99.90
15906;DHT22;8051;50.820;4.884;2023-05-23T02:52:30;13.90;99.90
15906;DHT22;8051;50.820;4.884;2023-05-23T02:54:59;13.90;99.90
15906;DHT22;8051;50.820;4.884;2023-05-23T02:57:27;13.90;99.90
15906;DHT22;8051;50.820;4.884;2023-05-23T02:59:54;13.80;99.90
15906;DHT22;8051;50.820;4.884;2023-05-23T03:02:22;13.80;99.90
15906;DHT22;8051;50.820;4.884;2023-05-23T03:04:49;13.80;99.90
15906;DHT22;8051;50.820;4.884;2023-05-23T03:07:17;13.80;99.90
15906;DHT22;8051;50.820;4.884;2023-05-23T03:09:44;13.80;99.90
15906;DHT22;8051;50.820;4.884;2023-05-23T03:12:13;13.80;99.90
15906;DHT22;8051;50.820;4.884;2023-05-23T03:14:40;13.90;99.90
15906;DHT22;8051;50.820;4.884;2023-05-23T03:17:10;13.90;99.90
15906;DHT22;8051;50.820;4.884;2023-05-23T03:19:38;13.80;99.90
15906;DHT22;8051;50.820;4.884;2023-05-23T03:22:05;13.80;99.90
15906;DHT22;8051;50.820;4.884;2023-05-23T03:24:32;13.80;99.90
15906;DHT22;8051;50.820;4.884;2023-05-23T03:26:59;13.90;99.90
15906;DHT22;8051;50.820;4.884;2023-05-23T03:29:29;13.90;99.90
15906;DHT22;8051;50.820;4.884;2023-05-23T03:31:57;13.90;99.90
15906;DHT22;8051;50.820;4.884;2023-05-23T03:34:25;13.90;99.90
15906;DHT22;8051;50.820;4.884;2023-05-23T03:36:52;13.90;99.90
15906;DHT22;8051;50.820;4.884;2023-05-23T03:39:19;13.90;99.90
15906;DHT22;8051;50.820;4.884;2023-05-23T03:41:48;13.90;99.90
15906;DHT22;8051;50.820;4.884;2023-05-23T03:44:15;13.80;99.90
15906;DHT22;8051;50.820;4.884;2023-05-23T03:46:44;13.70;99.90
15906;DHT22;8051;50.820;4.884;2023-05-23T03:49:11;13.70;99.90
15906;DHT22;8051;50.820;4.884;2023-05-23T03:51:40;13.70;99.90
15906;DHT22;8051;50.820;4.884;2023-05-23T03:54:07;13.70;99.90
15906;DHT22;8051;50.820;4.884;2023-05-23T03:56:34;13.70;99.90
15906;DHT22;8051;50.820;4.884;2023-05-23T03:59:02;13.70;99.90
15906;DHT22;8051;50.820;4.884;2023-05-23T04:01:29;13.70;99.90
15906;DHT22;8051;50.820;4.884;2023-05-23T04:03:58;13.70;99.90
15906;DHT22;8051;50.820;4.884;2023-05-23T04:06:26;13.70;99.90
15906;DHT22;8051;50.820;4.884;2023-05-23T04:08:56;13.70;99.90
15906;DHT22;8051;50.820;4.884;2023-05-23T04:11:23;13.70;99.90
15906;DHT22;8051;50.820;4.884;2023-05-23T04:13:50;13.70;99.90
15906;DHT22;8051;50.820;4.884;2023-05-23T04:16:18;13.80;99.90
15906;DHT22;8051;50.820;4.884;2023-05-23T04:18:47;13.80;99.90
15906;DHT22;8051;50.820;4.884;2023-05-23T04:21:16;13.70;99.90
15906;DHT22;8051;50.820;4.884;2023-05-23T04:23:44;13.70;99.90
15906;DHT22;8051;50.820;4.884;2023-05-23T04:26:12;13.60;99.90
15906;DHT22;8051;50.820;4.884;2023-05-23T04:28:39;13.50;99.90
15906;DHT22;8051;50.820;4.884;2023-05-23T04:31:08;13.40;99.90
15906;DHT22;8051;50.820;4.884;2023-05-23T04:33:36;13.40;99.90
15906;DHT22;8051;50.820;4.884;2023-05-23T04:36:04;13.40;99.90
15906;DHT22;8051;50.820;4.884;2023-05-23T04:38:35;13.40;99.90
15906;DHT22;8051;50.820;4.884;2023-05-23T04:41:04;13.50;99.90
15906;DHT22;8051;50.820;4.884;2023-05-23T04:43:32;13.30;99.90
15906;DHT22;8051;50.820;4.884;2023-05-23T04:45:59;13.30;99.90
15906;DHT22;8051;50.820;4.884;2023-05-23T04:48:27;13.30;99.90
15906;DHT22;8051;50.820;4.884;2023-05-23T04:50:56;13.20;99.90
15906;DHT22;8051;50.820;4.884;2023-05-23T04:53:27;13.20;99.90
15906;DHT22;8051;50.820;4.884;2023-05-23T04:55:55;13.20;99.90
15906;DHT22;8051;50.820;4.884;2023-05-23T04:58:23;13.30;99.90
15906;DHT22;8051;50.820;4.884;2023-05-23T05:00:50;13.40;99.90
15906;DHT22;8051;50.820;4.884;2023-05-23T05:03:18;13.40;99.90
15906;DHT22;8051;50.820;4.884;2023-05-23T05:05:45;13.50;99.90
15906;DHT22;8051;50.820;4.884;2023-05-23T05:08:13;13.50;99.90
15906;DHT22;8051;50.820;4.884;2023-05-23T05:10:40;13.50;99.90
15906;DHT22;8051;50.820;4.884;2023-05-23T05:13:09;13.50;99.90
15906;DHT22;8051;50.820;4.884;2023-05-23T05:15:37;13.50;99.90
15906;DHT22;8051;50.820;4.884;2023-05-23T05:18:04;13.60;99.90
15906;DHT22;8051;50.820;4.884;2023-05-23T05:20:32;13.60;99.90
15906;DHT22;8051;50.820;4.884;2023-05-23T05:22:59;13.60;99.90
15906;DHT22;8051;50.820;4.884;2023-05-23T05:25:27;13.60;99.90
15906;DHT22;8051;50.820;4.884;2023-05-23T05:27:57;13.60;99.90
15906;DHT22;8051;50.820;4.884;2023-05-23T05:30:26;13.60;99.90
15906;DHT22;8051;50.820;4.884;2023-05-23T05:32:53;13.70;99.90
15906;DHT22;8051;50.820;4.884;2023-05-23T05:35:22;13.60;99.90
15906;DHT22;8051;50.820;4.884;2023-05-23T05:37:50;13.70;99.90
15906;DHT22;8051;50.820;4.884;2023-05-23T05:40:17;13.60;99.90
15906;DHT22;8051;50.820;4.884;2023-05-23T05:42:45;13.60;99.90
15906;DHT22;8051;50.820;4.884;2023-05-23T05:45:12;13.70;99.90
15906;DHT22;8051;50.820;4.884;2023-05-23T05:47:41;13.70;99.90
15906;DHT22;8051;50.820;4.884;2023-05-23T05:50:09;13.70;99.90
15906;DHT22;8051;50.820;4.884;2023-05-23T05:52:37;13.70;99.90
15906;DHT22;8051;50.820;4.884;2023-05-23T05:55:06;13.70;99.90
15906;DHT22;8051;50.820;4.884;2023-05-23T05:57:36;13.80;99.90
15906;DHT22;8051;50.820;4.884;2023-05-23T06:00:06;13.80;99.90
15906;DHT22;8051;50.820;4.884;2023-05-23T06:02:38;13.80;99.90
15906;DHT22;8051;50.820;4.884;2023-05-23T06:05:09;13.80;99.90
15906;DHT22;8051;50.820;4.884;2023-05-23T06:07:37;13.80;99.90
15906;DHT22;8051;50.820;4.884;2023-05-23T06:10:05;13.90;99.90
15906;DHT22;8051;50.820;4.884;2023-05-23T06:12:34;13.80;99.90
15906;DHT22;8051;50.820;4.884;2023-05-23T06:15:01;13.80;99.90
15906;DHT22;8051;50.820;4.884;2023-05-23T06:17:29;13.80;99.90
15906;DHT22;8051;50.820;4.884;2023-05-23T06:19:56;13.70;99.90
15906;DHT22;8051;50.820;4.884;2023-05-23T06:22:25;13.70;99.90
15906;DHT22;8051;50.820;4.884;2023-05-23T06:24:53;13.70;99.90
15906;DHT22;8051;50.820;4.884;2023-05-23T06:27:20;13.70;99.90
15906;DHT22;8051;50.820;4.884;2023-05-23T06:29:48;13.70;99.90
15906;DHT22;8051;50.820;4.884;2023-05-23T06:32:15;13.80;99.90
15906;DHT22;8051;50.820;4.884;2023-05-23T06:34:43;13.70;99.90
15906;DHT22;8051;50.820;4.884;2023-05-23T06:37:10;13.70;99.90
15906;DHT22;8051;50.820;4.884;2023-05-23T06:39:39;13.70;99.90
15906;DHT22;8051;50.820;4.884;2023-05-23T06:42:07;13.80;99.90
15906;DHT22;8051;50.820;4.884;2023-05-23T06:44:34;13.70;99.90
15906;DHT22;8051;50.820;4.884;2023-05-23T06:47:01;13.70;99.90
15906;DHT22;8051;50.820;4.884;2023-05-23T06:49:29;13.60;99.90
15906;DHT22;8051;50.820;4.884;2023-05-23T06:51:56;13.40;99.90
15906;DHT22;8051;50.820;4.884;2023-05-23T06:54:24;13.50;99.90
15906;DHT22;8051;50.820;4.884;2023-05-23T06:56:53;13.40;99.90
15906;DHT22;8051;50.820;4.884;2023-05-23T06:59:20;13.40;99.90
15906;DHT22;8051;50.820;4.884;2023-05-23T07:01:48;13.50;99.90
15906;DHT22;8051;50.820;4.884;2023-05-23T07:04:15;13.60;99.90
15906;DHT22;8051;50.820;4.884;2023-05-23T07:06:42;13.70;99.90
15906;DHT22;8051;50.820;4.884;2023-05-23T07:09:10;13.80;99.90
15906;DHT22;8051;50.820;4.884;2023-05-23T07:11:38;13.90;99.90
15906;DHT22;8051;50.820;4.884;2023-05-23T07:14:07;14.00;99.90
15906;DHT22;8051;50.820;4.884;2023-05-23T07:16:34;14.20;99.90
15906;DHT22;8051;50.820;4.884;2023-05-23T07:19:02;14.30;99.90
15906;DHT22;8051;50.820;4.884;2023-05-23T07:21:30;14.60;99.90
15906;DHT22;8051;50.820;4.884;2023-05-23T07:23:58;14.90;99.90
15906;DHT22;8051;50.820;4.884;2023-05-23T07:26:25;15.20;99.90
15906;DHT22;8051;50.820;4.884;2023-05-23T07:28:53;15.20;99.90
15906;DHT22;8051;50.820;4.884;2023-05-23T07:31:22;15.30;99.90
15906;DHT22;8051;50.820;4.884;2023-05-23T07:33:49;15.30;99.90
15906;DHT22;8051;50.820;4.884;2023-05-23T07:36:17;15.30;99.90
15906;DHT22;8051;50.820;4.884;2023-05-23T07:38:44;15.30;99.90
15906;DHT22;8051;50.820;4.884;2023-05-23T07:41:11;15.30;99.90
15906;DHT22;8051;50.820;4.884;2023-05-23T07:43:39;15.20;99.90
15906;DHT22;8051;50.820;4.884;2023-05-23T07:46:06;15.20;99.90
15906;DHT22;8051;50.820;4.884;2023-05-23T07:48:35;15.10;99.90
15906;DHT22;8051;50.820;4.884;2023-05-23T07:51:03;15.40;99.90
15906;DHT22;8051;50.820;4.884;2023-05-23T07:53:30;15.50;99.90
15906;DHT22;8051;50.820;4.884;2023-05-23T07:55:58;15.70;99.90
15906;DHT22;8051;50.820;4.884;2023-05-23T07:58:25;15.80;99.90
15906;DHT22;8051;50.820;4.884;2023-05-23T08:00:53;15.90;99.90
15906;DHT22;8051;50.820;4.884;2023-05-23T08:03:20;16.10;99.90
15906;DHT22;8051;50.820;4.884;2023-05-23T08:05:49;16.00;99.90
15906;DHT22;8051;50.820;4.884;2023-05-23T08:08:17;15.90;99.90
15906;DHT22;8051;50.820;4.884;2023-05-23T08:10:44;15.80;99.90
15906;DHT22;8051;50.820;4.884;2023-05-23T08:13:12;15.50;99.90
15906;DHT22;8051;50.820;4.884;2023-05-23T08:15:39;15.10;99.90
15906;DHT22;8051;50.820;4.884;2023-05-23T08:18:07;14.90;99.90
15906;DHT22;8051;50.820;4.884;2023-05-23T08:20:34;14.80;99.90
15906;DHT22;8051;50.820;4.884;2023-05-23T08:23:03;14.60;99.90
15906;DHT22;8051;50.820;4.884;2023-05-23T08:25:31;14.60;99.90
15906;DHT22;8051;50.820;4.884;2023-05-23T08:27:58;14.50;99.90
15906;DHT22;8051;50.820;4.884;2023-05-23T08:30:27;14.50;99.90
15906;DHT22;8051;50.820;4.884;2023-05-23T08:32:55;14.60;99.90
15906;DHT22;8051;50.820;4.884;2023-05-23T08:35:23;14.70;99.90
15906;DHT22;8051;50.820;4.884;2023-05-23T08:37:50;14.70;99.90
15906;DHT22;8051;50.820;4.884;2023-05-23T08:40:20;14.60;99.90
15906;DHT22;8051;50.820;4.884;2023-05-23T08:42:49;14.80;99.90
15906;DHT22;8051;50.820;4.884;2023-05-23T08:45:17;15.00;99.90
15906;DHT22;8051;50.820;4.884;2023-05-23T08:47:45;15.20;99.90
15906;DHT22;8051;50.820;4.884;2023-05-23T08:50:14;15.60;99.90
15906;DHT22;8051;50.820;4.884;2023-05-23T08:52:45;15.50;99.90
15906;DHT22;8051;50.820;4.884;2023-05-23T08:55:14;15.30;99.90
15906;DHT22;8051;50.820;4.884;2023-05-23T08:57:44;15.60;99.90
15906;DHT22;8051;50.820;4.884;2023-05-23T09:00:14;16.00;99.90
15906;DHT22;8051;50.820;4.884;2023-05-23T09:02:43;16.30;99.90
15906;DHT22;8051;50.820;4.884;2023-05-23T09:05:11;16.40;99.90
15906;DHT22;8051;50.820;4.884;2023-05-23T09:07:38;16.60;99.90
15906;DHT22;8051;50.820;4.884;2023-05-23T09:10:07;16.40;99.90
15906;DHT22;8051;50.820;4.884;2023-05-23T09:12:35;16.50;99.90
15906;DHT22;8051;50.820;4.884;2023-05-23T09:15:05;16.60;99.90
15906;DHT22;8051;50.820;4.884;2023-05-23T09:17:32;16.40;99.90
15906;DHT22;8051;50.820;4.884;2023-05-23T09:20:01;16.50;99.90
15906;DHT22;8051;50.820;4.884;2023-05-23T09:22:30;16.50;99.90
15906;DHT22;8051;50.820;4.884;2023-05-23T09:24:57;16.50;99.90
15906;DHT22;8051;50.820;4.884;2023-05-23T09:27:26;16.30;99.90
15906;DHT22;8051;50.820;4.884;2023-05-23T09:29:53;16.50;99.90
15906;DHT22;8051;50.820;4.884;2023-05-23T09:32:23;16.50;99.90
15906;DHT22;8051;50.820;4.884;2023-05-23T09:34:55;16.80;99.90
15906;DHT22;8051;50.820;4.884;2023-05-23T09:37:28;16.80;99.90
15906;DHT22;8051;50.820;4.884;2023-05-23T09:39:58;17.10;99.90
15906;DHT22;8051;50.820;4.884;2023-05-23T09:42:31;17.30;99.90
15906;DHT22;8051;50.820;4.884;2023-05-23T09:45:00;17.30;99.90
15906;DHT22;8051;50.820;4.884;2023-05-23T09:47:29;17.10;99.90
15906;DHT22;8051;50.820;4.884;2023-05-23T09:49:57;17.20;99.90
15906;DHT22;8051;50.820;4.884;2023-05-23T09:52:25;17.40;99.90
15906;DHT22;8051;50.820;4.884;2023-05-23T09:54:53;17.60;99.90
15906;DHT22;8051;50.820;4.884;2023-05-23T09:57:21;17.50;99.90
15906;DHT22;8051;50.820;4.884;2023-05-23T09:59:52;17.30;99.90
15906;DHT22;8051;50.820;4.884;2023-05-23T10:02:39;16.80;99.90
15906;DHT22;8051;50.820;4.884;2023-05-23T10:05:27;16.50;99.90
15906;DHT22;8051;50.820;4.884;2023-05-23T10:07:57;16.40;99.90
15906;DHT22;8051;50.820;4.884;2023-05-23T10:10:30;16.50;99.90
15906;DHT22;8051;50.820;4.884;2023-05-23T10:13:01;16.10;99.90
15906;DHT22;8051;50.820;4.884;2023-05-23T10:15:36;16.50;99.90
15906;DHT22;8051;50.820;4.884;2023-05-23T10:18:15;16.90;99.90
15906;DHT22;8051;50.820;4.884;2023-05-23T10:20:48;16.90;99.90
15906;DHT22;8051;50.820;4.884;2023-05-23T10:23:16;16.90;99.90
15906;DHT22;8051;50.820;4.884;2023-05-23T10:25:43;17.00;99.90
15906;DHT22;8051;50.820;4.884;2023-05-23T10:28:12;17.20;99.90
15906;DHT22;8051;50.820;4.884;2023-05-23T10:30:40;17.30;99.90
15906;DHT22;8051;50.820;4.884;2023-05-23T10:33:09;17.20;99.90
15906;DHT22;8051;50.820;4.884;2023-05-23T10:35:46;17.30;99.90
15906;DHT22;8051;50.820;4.884;2023-05-23T10:38:26;17.40;99.90
15906;DHT22;8051;50.820;4.884;2023-05-23T10:41:01;17.70;99.90
15906;DHT22;8051;50.820;4.884;2023-05-23T10:43:39;17.90;99.90
15906;DHT22;8051;50.820;4.884;2023-05-23T10:46:09;17.90;99.90
15906;DHT22;8051;50.820;4.884;2023-05-23T10:48:42;17.90;99.90
15906;DHT22;8051;50.820;4.884;2023-05-23T10:51:10;17.50;99.90
15906;DHT22;8051;50.820;4.884;2023-05-23T10:53:40;17.70;99.90
15906;DHT22;8051;50.820;4.884;2023-05-23T10:56:09;18.00;99.90
15906;DHT22;8051;50.820;4.884;2023-05-23T10:58:38;17.80;99.90
15906;DHT22;8051;50.820;4.884;2023-05-23T11:01:08;17.60;99.90
15906;DHT22;8051;50.820;4.884;2023-05-23T11:03:47;17.70;99.90
15906;DHT22;8051;50.820;4.884;2023-05-23T11:06:30;17.80;99.90
15906;DHT22;8051;50.820;4.884;2023-05-23T11:09:02;17.80;99.90
15906;DHT22;8051;50.820;4.884;2023-05-23T11:11:54;17.50;99.90
15906;DHT22;8051;50.820;4.884;2023-05-23T11:17:17;17.90;99.90
15906;DHT22;8051;50.820;4.884;2023-05-23T11:19:55;18.10;99.90
15906;DHT22;8051;50.820;4.884;2023-05-23T11:22:28;18.30;99.90
15906;DHT22;8051;50.820;4.884;2023-05-23T11:24:57;18.60;99.90
15906;DHT22;8051;50.820;4.884;2023-05-23T11:27:30;18.70;99.90
15906;DHT22;8051;50.820;4.884;2023-05-23T11:30:05;18.90;99.90
15906;DHT22;8051;50.820;4.884;2023-05-23T11:32:35;18.40;99.90
15906;DHT22;8051;50.820;4.884;2023-05-23T11:35:04;18.20;99.90
15906;DHT22;8051;50.820;4.884;2023-05-23T11:37:33;18.00;99.90
15906;DHT22;8051;50.820;4.884;2023-05-23T11:40:28;18.00;99.90
15906;DHT22;8051;50.820;4.884;2023-05-23T11:42:57;18.20;99.90
15906;DHT22;8051;50.820;4.884;2023-05-23T11:45:24;18.40;99.90
15906;DHT22;8051;50.820;4.884;2023-05-23T11:47:52;19.00;99.90
15906;DHT22;8051;50.820;4.884;2023-05-23T11:50:20;19.20;99.90
15906;DHT22;8051;50.820;4.884;2023-05-23T11:52:50;18.50;99.90
15906;DHT22;8051;50.820;4.884;2023-05-23T11:55:18;18.50;99.90
15906;DHT22;8051;50.820;4.884;2023-05-23T11:57:47;18.80;99.90
15906;DHT22;8051;50.820;4.884;2023-05-23T12:00:16;19.10;99.90
15906;DHT22;8051;50.820;4.884;2023-05-23T12:02:44;19.30;99.90
15906;DHT22;8051;50.820;4.884;2023-05-23T12:05:13;19.30;99.90
15906;DHT22;8051;50.820;4.884;2023-05-23T12:07:41;19.20;99.90
15906;DHT22;8051;50.820;4.884;2023-05-23T12:10:10;19.10;99.90
15906;DHT22;8051;50.820;4.884;2023-05-23T12:12:38;19.00;99.90
15906;DHT22;8051;50.820;4.884;2023-05-23T12:15:08;18.60;99.90
15906;DHT22;8051;50.820;4.884;2023-05-23T12:17:36;18.50;99.90
15906;DHT22;8051;50.820;4.884;2023-05-23T12:20:05;18.60;99.90
15906;DHT22;8051;50.820;4.884;2023-05-23T12:22:33;18.50;99.90
15906;DHT22;8051;50.820;4.884;2023-05-23T12:25:01;18.70;99.90
15906;DHT22;8051;50.820;4.884;2023-05-23T12:27:34;18.40;99.90
15906;DHT22;8051;50.820;4.884;2023-05-23T12:30:06;18.20;99.90
15906;DHT22;8051;50.820;4.884;2023-05-23T12:32:38;18.40;99.90
15906;DHT22;8051;50.820;4.884;2023-05-23T12:35:07;18.60;99.90
15906;DHT22;8051;50.820;4.884;2023-05-23T12:37:38;18.40;99.90
15906;DHT22;8051;50.820;4.884;2023-05-23T12:40:10;18.60;99.90
15906;DHT22;8051;50.820;4.884;2023-05-23T12:42:53;19.00;99.90
15906;DHT22;8051;50.820;4.884;2023-05-23T12:45:22;19.00;99.90
15906;DHT22;8051;50.820;4.884;2023-05-23T12:47:49;18.90;99.90
15906;DHT22;8051;50.820;4.884;2023-05-23T12:50:17;18.50;99.90
15906;DHT22;8051;50.820;4.884;2023-05-23T12:52:44;18.00;99.90
15906;DHT22;8051;50.820;4.884;2023-05-23T12:55:12;18.20;99.90
15906;DHT22;8051;50.820;4.884;2023-05-23T12:57:39;18.40;99.90
15906;DHT22;8051;50.820;4.884;2023-05-23T13:00:10;18.70;99.90
15906;DHT22;8051;50.820;4.884;2023-05-23T13:02:37;19.40;99.90
15906;DHT22;8051;50.820;4.884;2023-05-23T13:05:05;19.70;99.90
15906;DHT22;8051;50.820;4.884;2023-05-23T13:07:33;19.80;99.90
15906;DHT22;8051;50.820;4.884;2023-05-23T13:10:01;19.40;99.90
15906;DHT22;8051;50.820;4.884;2023-05-23T13:12:28;19.20;99.90
15906;DHT22;8051;50.820;4.884;2023-05-23T13:14:56;19.40;99.90
15906;DHT22;8051;50.820;4.884;2023-05-23T13:17:25;19.40;99.90
15906;DHT22;8051;50.820;4.884;2023-05-23T13:19:52;19.50;99.90
15906;DHT22;8051;50.820;4.884;2023-05-23T13:22:20;19.70;99.90
15906;DHT22;8051;50.820;4.884;2023-05-23T13:24:47;20.00;99.90
15906;DHT22;8051;50.820;4.884;2023-05-23T13:27:15;20.10;99.90
15906;DHT22;8051;50.820;4.884;2023-05-23T13:29:43;20.40;99.90
15906;DHT22;8051;50.820;4.884;2023-05-23T13:32:10;20.20;99.90
15906;DHT22;8051;50.820;4.884;2023-05-23T13:34:39;20.60;99.90
15906;DHT22;8051;50.820;4.884;2023-05-23T13:37:06;20.60;99.90
15906;DHT22;8051;50.820;4.884;2023-05-23T13:39:34;20.10;99.90
15906;DHT22;8051;50.820;4.884;2023-05-23T13:42:01;19.60;99.90
15906;DHT22;8051;50.820;4.884;2023-05-23T13:44:29;19.10;99.90
15906;DHT22;8051;50.820;4.884;2023-05-23T13:47:03;19.20;99.90
15906;DHT22;8051;50.820;4.884;2023-05-23T13:49:35;19.50;99.90
15906;DHT22;8051;50.820;4.884;2023-05-23T13:52:05;19.40;99.90
15906;DHT22;8051;50.820;4.884;2023-05-23T13:54:32;19.90;99.90
15906;DHT22;8051;50.820;4.884;2023-05-23T13:57:00;20.10;99.90
15906;DHT22;8051;50.820;4.884;2023-05-23T13:59:27;20.20;99.90
15906;DHT22;8051;50.820;4.884;2023-05-23T14:01:55;20.30;99.90
15906;DHT22;8051;50.820;4.884;2023-05-23T14:04:22;20.30;99.90
15906;DHT22;8051;50.820;4.884;2023-05-23T14:06:50;20.00;99.90
15906;DHT22;8051;50.820;4.884;2023-05-23T14:09:19;20.00;99.90
15906;DHT22;8051;50.820;4.884;2023-05-23T14:11:46;19.90;99.90
15906;DHT22;8051;50.820;4.884;2023-05-23T14:14:16;20.00;99.90
15906;DHT22;8051;50.820;4.884;2023-05-23T14:16:44;19.90;99.90
15906;DHT22;8051;50.820;4.884;2023-05-23T14:19:11;20.30;99.90
15906;DHT22;8051;50.820;4.884;2023-05-23T14:21:39;20.40;99.90
15906;DHT22;8051;50.820;4.884;2023-05-23T14:24:07;20.40;99.90
15906;DHT22;8051;50.820;4.884;2023-05-23T14:26:35;20.20;99.90
15906;DHT22;8051;50.820;4.884;2023-05-23T14:29:03;19.80;99.90
15906;DHT22;8051;50.820;4.884;2023-05-23T14:31:31;20.30;99.90
15906;DHT22;8051;50.820;4.884;2023-05-23T14:33:59;20.70;99.90
15906;DHT22;8051;50.820;4.884;2023-05-23T14:36:27;20.40;99.90
15906;DHT22;8051;50.820;4.884;2023-05-23T14:38:55;19.80;99.90
15906;DHT22;8051;50.820;4.884;2023-05-23T14:41:22;19.50;99.90
15906;DHT22;8051;50.820;4.884;2023-05-23T14:43:51;19.40;99.90
15906;DHT22;8051;50.820;4.884;2023-05-23T14:46:18;19.50;99.90
15906;DHT22;8051;50.820;4.884;2023-05-23T14:48:46;19.50;99.90
15906;DHT22;8051;50.820;4.884;2023-05-23T14:51:14;19.70;99.90
15906;DHT22;8051;50.820;4.884;2023-05-23T14:53:41;19.90;99.90
15906;DHT22;8051;50.820;4.884;2023-05-23T14:56:08;19.80;99.90
15906;DHT22;8051;50.820;4.884;2023-05-23T14:58:36;19.90;99.90
15906;DHT22;8051;50.820;4.884;2023-05-23T15:01:06;20.10;99.90
15906;DHT22;8051;50.820;4.884;2023-05-23T15:03:34;20.30;99.90
15906;DHT22;8051;50.820;4.884;2023-05-23T15:06:01;20.50;99.90
15906;DHT22;8051;50.820;4.884;2023-05-23T15:08:29;20.50;99.90
15906;DHT22;8051;50.820;4.884;2023-05-23T15:10:56;20.00;99.90
15906;DHT22;8051;50.820;4.884;2023-05-23T15:13:24;19.80;99.90
15906;DHT22;8051;50.820;4.884;2023-05-23T15:15:51;19.90;99.90
15906;DHT22;8051;50.820;4.884;2023-05-23T15:18:20;20.00;99.90
15906;DHT22;8051;50.820;4.884;2023-05-23T15:20:48;19.70;99.90
15906;DHT22;8051;50.820;4.884;2023-05-23T15:23:15;20.00;99.90
15906;DHT22;8051;50.820;4.884;2023-05-23T15:25:43;20.20;99.90
15906;DHT22;8051;50.820;4.884;2023-05-23T15:28:10;20.10;99.90
15906;DHT22;8051;50.820;4.884;2023-05-23T15:30:38;19.60;99.90
15906;DHT22;8051;50.820;4.884;2023-05-23T15:33:05;19.20;99.90
15906;DHT22;8051;50.820;4.884;2023-05-23T15:35:34;19.30;99.90
15906;DHT22;8051;50.820;4.884;2023-05-23T15:38:02;19.40;99.90
15906;DHT22;8051;50.820;4.884;2023-05-23T15:40:29;19.60;99.90
15906;DHT22;8051;50.820;4.884;2023-05-23T15:42:57;19.50;99.90
15906;DHT22;8051;50.820;4.884;2023-05-23T15:45:24;19.50;99.90
15906;DHT22;8051;50.820;4.884;2023-05-23T15:47:52;21.30;99.90
15906;DHT22;8051;50.820;4.884;2023-05-23T15:50:19;24.20;99.90
15906;DHT22;8051;50.820;4.884;2023-05-23T15:52:48;25.70;99.90
15906;DHT22;8051;50.820;4.884;2023-05-23T15:55:16;26.60;99.90
15906;DHT22;8051;50.820;4.884;2023-05-23T15:57:44;26.20;99.90